Time;durP1;ratioP1;P1;durP2;ratioP2;P2;SDS_P1;SDS_P2;PMS_P1;PMS_P2;Temp;Humidity;BMP_temperature;BMP_pressure;BME280_temperature;BME280_humidity;BME280_pressure;Samples;Min_cycle;Max_cycle;Signal;HPM_P1;HPM_P2
2023/09/28 00:01:12;;;;;;;26.55;15.63;;;;;;;;;;5091963;28;20035;-60
2023/09/28 00:03:38;;;;;;;28.65;14.70;;;;;;;;;;5090788;28;20078;-61
2023/09/28 00:06:04;;;;;;;28.63;14.82;;;;;;;;;;5090762;28;20059;-60
2023/09/28 00:08:29;;;;;;;26.98;15.27;;;;;;;;;;5091901;28;20056;-62
2023/09/28 00:10:55;;;;;;;22.75;13.82;;;;;;;;;;5092227;28;20035;-62
2023/09/28 00:13:21;;;;;;;28.48;15.52;;;;;;;;;;5092310;28;20396;-61
2023/09/28 00:15:46;;;;;;;27.05;12.85;;;;;;;;;;5092031;28;20059;-62
2023/09/28 00:18:12;;;;;;;24.70;12.95;;;;;;;;;;5112017;28;20525;-62
2023/09/28 00:20:38;;;;;;;27.88;15.63;;;;;;;;;;5112459;28;20040;-61
2023/09/28 00:23:04;;;;;;;25.83;13.73;;;;;;;;;;5112262;28;20040;-61
2023/09/28 00:25:29;;;;;;;24.42;14.05;;;;;;;;;;5112324;28;20042;-63
2023/09/28 00:27:58;;;;;;;23.20;13.90;;;;;;;;;;5112289;28;20052;-60
2023/09/28 00:30:25;;;;;;;30.70;14.63;;;;;;;;;;5112212;28;20386;-62
2023/09/28 00:32:53;;;;;;;27.83;15.13;;;;;;;;;;5112082;28;20527;-61
2023/09/28 00:35:19;;;;;;;24.67;14.55;;;;;;;;;;5112186;28;20078;-61
2023/09/28 00:37:46;;;;;;;29.17;16.38;;;;;;;;;;5112274;28;20073;-61
2023/09/28 00:40:27;;;;;;;30.85;15.13;;;;;;;;;;5110919;28;20047;-62
2023/09/28 00:42:54;;;;;;;25.73;15.10;;;;;;;;;;5110520;28;20117;-62
2023/09/28 00:45:21;;;;;;;22.67;13.73;;;;;;;;;;5111751;28;20031;-62
2023/09/28 00:47:50;;;;;;;21.83;13.02;;;;;;;;;;5110421;28;20173;-61
2023/09/28 00:50:17;;;;;;;31.67;15.57;;;;;;;;;;5111570;28;20508;-63
2023/09/28 00:52:44;;;;;;;34.92;16.30;;;;;;;;;;5111982;28;20118;-61
2023/09/28 00:55:11;;;;;;;26.40;13.57;;;;;;;;;;5110761;28;20413;-61
2023/09/28 00:57:38;;;;;;;25.30;14.05;;;;;;;;;;5111974;28;20503;-60
2023/09/28 01:00:18;;;;;;;27.00;14.48;;;;;;;;;;5110711;28;20031;-62
2023/09/28 01:02:50;;;;;;;26.15;14.90;;;;;;;;;;5112121;28;20043;-61
2023/09/28 01:05:20;;;;;;;25.48;13.32;;;;;;;;;;5111632;28;20124;-61
2023/09/28 01:07:46;;;;;;;22.17;13.10;;;;;;;;;;5110557;28;20405;-61
2023/09/28 01:10:14;;;;;;;23.83;14.30;;;;;;;;;;5110339;28;20101;-63
2023/09/28 01:12:41;;;;;;;25.77;14.07;;;;;;;;;;5103233;28;20500;-61
2023/09/28 01:15:09;;;;;;;24.13;13.20;;;;;;;;;;5088626;28;20028;-61
2023/09/28 01:17:36;;;;;;;18.63;12.35;;;;;;;;;;5091302;28;20401;-61
2023/09/28 01:20:10;;;;;;;20.73;12.85;;;;;;;;;;5090044;28;20036;-61
2023/09/28 01:22:36;;;;;;;25.80;13.45;;;;;;;;;;5090002;28;20309;-60
2023/09/28 01:25:03;;;;;;;24.67;13.57;;;;;;;;;;5091261;28;20033;-62
2023/09/28 01:27:29;;;;;;;26.00;14.40;;;;;;;;;;5091235;28;20075;-61
2023/09/28 01:29:55;;;;;;;23.63;13.32;;;;;;;;;;5091259;28;20082;-61
2023/09/28 01:32:21;;;;;;;24.50;14.45;;;;;;;;;;5089735;28;20048;-60
2023/09/28 01:34:46;;;;;;;25.67;14.15;;;;;;;;;;5091299;28;20123;-61
2023/09/28 01:37:12;;;;;;;24.25;13.77;;;;;;;;;;5090895;28;20123;-61
2023/09/28 01:39:38;;;;;;;24.45;14.32;;;;;;;;;;5088809;28;20088;-62
2023/09/28 01:42:04;;;;;;;24.15;13.98;;;;;;;;;;5090709;28;20506;-61
2023/09/28 01:44:29;;;;;;;27.63;14.10;;;;;;;;;;5091081;28;20081;-63
2023/09/28 01:46:55;;;;;;;24.52;14.02;;;;;;;;;;5090936;28;20044;-60
2023/09/28 01:49:21;;;;;;;27.58;14.02;;;;;;;;;;5090822;28;20497;-61
2023/09/28 01:51:46;;;;;;;26.13;13.80;;;;;;;;;;5089673;28;20051;-61
2023/09/28 01:54:12;;;;;;;28.15;14.13;;;;;;;;;;5091085;28;20064;-61
2023/09/28 01:56:38;;;;;;;28.55;14.50;;;;;;;;;;5089624;28;20450;-60
2023/09/28 01:59:03;;;;;;;22.05;12.98;;;;;;;;;;5089468;28;20101;-60
2023/09/28 02:01:31;;;;;;;24.02;12.45;;;;;;;;;;5089740;28;20028;-61
2023/09/28 02:03:57;;;;;;;24.98;12.93;;;;;;;;;;5093902;28;20040;-62
2023/09/28 02:06:23;;;;;;;21.67;12.07;;;;;;;;;;5093206;28;20032;-61
2023/09/28 02:08:48;;;;;;;21.60;12.48;;;;;;;;;;5094412;28;20063;-61
2023/09/28 02:11:14;;;;;;;19.92;11.80;;;;;;;;;;5094366;28;20531;-61
2023/09/28 02:13:41;;;;;;;21.75;11.95;;;;;;;;;;5093187;28;20405;-61
2023/09/28 02:16:11;;;;;;;16.05;11.13;;;;;;;;;;5098037;28;20024;-61
2023/09/28 02:18:37;;;;;;;18.13;11.02;;;;;;;;;;5113345;28;20484;-61
2023/09/28 02:21:10;;;;;;;18.13;11.23;;;;;;;;;;5114389;28;20040;-60
2023/09/28 02:23:58;;;;;;;21.20;11.68;;;;;;;;;;5113872;28;20065;-60
2023/09/28 02:26:24;;;;;;;20.65;10.82;;;;;;;;;;5112981;28;20031;-62
2023/09/28 02:28:50;;;;;;;19.48;10.88;;;;;;;;;;5113221;28;20085;-61
2023/09/28 02:31:16;;;;;;;17.02;9.40;;;;;;;;;;5113157;28;20435;-62
2023/09/28 02:33:41;;;;;;;15.25;9.73;;;;;;;;;;5112971;28;20090;-62
2023/09/28 02:36:08;;;;;;;18.77;9.95;;;;;;;;;;5112803;28;20035;-61
2023/09/28 02:38:34;;;;;;;19.10;9.93;;;;;;;;;;5112855;28;20088;-62
2023/09/28 02:41:00;;;;;;;13.75;9.45;;;;;;;;;;5095680;28;20126;-62
2023/09/28 02:43:25;;;;;;;16.35;9.43;;;;;;;;;;5112939;28;20055;-62
2023/09/28 02:45:51;;;;;;;12.43;8.77;;;;;;;;;;5114175;28;20439;-63
2023/09/28 02:48:17;;;;;;;15.35;8.57;;;;;;;;;;5114269;28;20047;-61
2023/09/28 02:50:43;;;;;;;15.40;9.25;;;;;;;;;;5105601;28;20043;-62
2023/09/28 02:53:09;;;;;;;14.85;8.82;;;;;;;;;;5092813;28;20408;-61
2023/09/28 02:55:36;;;;;;;14.75;9.30;;;;;;;;;;5094082;28;20040;-61
2023/09/28 02:58:05;;;;;;;16.10;9.88;;;;;;;;;;5091825;28;20032;-62
2023/09/28 03:00:32;;;;;;;14.23;8.65;;;;;;;;;;5092618;28;20489;-61
2023/09/28 03:03:03;;;;;;;17.30;8.80;;;;;;;;;;5093858;28;20126;-61
2023/09/28 03:05:29;;;;;;;12.32;7.75;;;;;;;;;;5092316;28;20036;-61
2023/09/28 03:07:54;;;;;;;13.32;8.38;;;;;;;;;;5092008;28;20527;-60
2023/09/28 03:10:20;;;;;;;13.32;8.00;;;;;;;;;;5093231;28;20032;-63
2023/09/28 03:12:46;;;;;;;12.95;7.43;;;;;;;;;;5091911;28;20039;-61
2023/09/28 03:15:16;;;;;;;10.73;7.03;;;;;;;;;;5091554;28;20038;-60
2023/09/28 03:17:42;;;;;;;13.55;7.43;;;;;;;;;;5104975;28;20039;-61
2023/09/28 03:20:18;;;;;;;12.13;7.40;;;;;;;;;;5112495;28;20040;-62
2023/09/28 03:22:44;;;;;;;11.98;7.30;;;;;;;;;;5114537;28;20104;-62
2023/09/28 03:25:16;;;;;;;10.98;6.70;;;;;;;;;;5112120;28;20031;-61
2023/09/28 03:27:42;;;;;;;13.55;7.53;;;;;;;;;;5112501;28;20509;-61
2023/09/28 03:30:10;;;;;;;9.75;7.10;;;;;;;;;;5113548;28;20042;-62
2023/09/28 03:32:38;;;;;;;9.65;6.22;;;;;;;;;;5113521;28;20036;-62
2023/09/28 03:35:05;;;;;;;12.55;6.60;;;;;;;;;;5111718;28;20112;-60
2023/09/28 03:37:30;;;;;;;10.30;6.97;;;;;;;;;;5084956;28;20032;-61
2023/09/28 03:39:58;;;;;;;8.95;6.85;;;;;;;;;;5081107;28;20460;-61
2023/09/28 03:42:24;;;;;;;12.70;6.53;;;;;;;;;;5081716;28;20055;-63
2023/09/28 03:44:49;;;;;;;9.95;6.38;;;;;;;;;;5071994;28;20086;-62
2023/09/28 03:47:15;;;;;;;10.65;6.55;;;;;;;;;;5072078;28;20046;-61
2023/09/28 03:49:40;;;;;;;14.20;6.88;;;;;;;;;;5072415;28;20037;-61
2023/09/28 03:52:06;;;;;;;11.07;6.68;;;;;;;;;;5072133;28;20513;-61
2023/09/28 03:54:31;;;;;;;11.65;6.90;;;;;;;;;;5072185;28;20440;-62
2023/09/28 03:56:58;;;;;;;9.13;6.63;;;;;;;;;;5071237;28;20070;-61
2023/09/28 03:59:23;;;;;;;10.18;6.93;;;;;;;;;;5070853;28;20418;-61
2023/09/28 04:01:49;;;;;;;10.60;7.13;;;;;;;;;;5070563;28;20036;-60
2023/09/28 04:04:14;;;;;;;14.70;7.43;;;;;;;;;;5071872;28;20033;-61
2023/09/28 04:06:40;;;;;;;10.95;7.07;;;;;;;;;;5071798;28;20041;-62
2023/09/28 04:09:07;;;;;;;13.00;8.18;;;;;;;;;;5071511;28;20063;-61
2023/09/28 04:11:34;;;;;;;9.35;6.82;;;;;;;;;;5070454;28;20040;-63
2023/09/28 04:14:01;;;;;;;10.90;7.72;;;;;;;;;;5071491;28;20119;-61
2023/09/28 04:16:27;;;;;;;13.95;7.65;;;;;;;;;;5072555;28;20043;-61
2023/09/28 04:18:52;;;;;;;12.85;7.85;;;;;;;;;;5090679;28;20039;-62
2023/09/28 04:21:18;;;;;;;13.90;7.60;;;;;;;;;;5090444;28;20040;-61
2023/09/28 04:23:44;;;;;;;12.80;7.32;;;;;;;;;;5090291;28;20040;-62
2023/09/28 04:26:09;;;;;;;12.00;6.95;;;;;;;;;;5090719;28;20101;-62
2023/09/28 04:28:35;;;;;;;11.35;7.40;;;;;;;;;;5091808;28;20508;-62
2023/09/28 04:31:01;;;;;;;10.32;7.15;;;;;;;;;;5090443;28;20063;-61
2023/09/28 04:33:26;;;;;;;14.15;6.60;;;;;;;;;;5091303;28;20390;-61
2023/09/28 04:35:53;;;;;;;9.10;6.28;;;;;;;;;;5090474;28;20031;-62
2023/09/28 04:38:19;;;;;;;12.75;6.57;;;;;;;;;;5091804;28;20122;-61
2023/09/28 04:40:44;;;;;;;7.70;5.82;;;;;;;;;;5091623;28;20139;-61
2023/09/28 04:43:10;;;;;;;8.98;6.07;;;;;;;;;;5091052;28;20131;-61
2023/09/28 04:45:35;;;;;;;10.48;5.53;;;;;;;;;;5091156;28;20071;-63
2023/09/28 04:48:01;;;;;;;9.68;6.57;;;;;;;;;;5090571;28;20423;-60
2023/09/28 04:50:27;;;;;;;18.58;6.72;;;;;;;;;;5091481;28;20468;-62
2023/09/28 04:52:54;;;;;;;16.30;6.93;;;;;;;;;;5091665;28;20488;-61
2023/09/28 04:55:20;;;;;;;22.10;7.45;;;;;;;;;;5091210;28;20047;-62
2023/09/28 04:57:45;;;;;;;17.00;6.88;;;;;;;;;;5089964;28;20028;-62
2023/09/28 05:00:15;;;;;;;14.65;7.25;;;;;;;;;;5091594;28;20044;-63
2023/09/28 05:02:42;;;;;;;13.65;7.57;;;;;;;;;;5091510;28;20128;-62
2023/09/28 05:05:08;;;;;;;12.90;6.95;;;;;;;;;;5091074;28;20511;-62
2023/09/28 05:07:33;;;;;;;17.15;7.32;;;;;;;;;;5088988;28;20048;-63
2023/09/28 05:09:59;;;;;;;13.00;6.75;;;;;;;;;;5091284;28;20048;-64
2023/09/28 05:12:24;;;;;;;9.80;6.63;;;;;;;;;;5091255;28;20028;-61
2023/09/28 05:14:50;;;;;;;8.38;5.97;;;;;;;;;;5089842;28;20059;-63
2023/09/28 05:17:15;;;;;;;14.23;6.72;;;;;;;;;;5099191;28;20039;-61
2023/09/28 05:19:41;;;;;;;10.73;6.85;;;;;;;;;;5111849;28;20058;-62
2023/09/28 05:22:10;;;;;;;11.25;6.20;;;;;;;;;;5091840;28;20126;-62
2023/09/28 05:24:36;;;;;;;15.32;6.30;;;;;;;;;;5090020;28;20494;-64
2023/09/28 05:27:02;;;;;;;9.77;6.22;;;;;;;;;;5091221;28;20114;-64
2023/09/28 05:29:30;;;;;;;12.93;7.03;;;;;;;;;;5091345;28;20513;-63
2023/09/28 05:31:55;;;;;;;18.90;7.20;;;;;;;;;;5090212;28;20032;-61
2023/09/28 05:34:21;;;;;;;12.20;7.03;;;;;;;;;;5091551;28;20089;-63
2023/09/28 05:36:47;;;;;;;10.15;6.57;;;;;;;;;;5092168;28;20038;-61
2023/09/28 05:39:12;;;;;;;11.23;7.32;;;;;;;;;;5087146;28;20034;-61
2023/09/28 05:41:38;;;;;;;11.82;7.15;;;;;;;;;;5089369;28;20127;-61
2023/09/28 05:44:04;;;;;;;9.15;6.38;;;;;;;;;;5082455;28;20484;-61
2023/09/28 05:46:30;;;;;;;11.55;7.10;;;;;;;;;;5090302;28;20031;-62
2023/09/28 05:48:56;;;;;;;12.40;6.80;;;;;;;;;;5094752;28;20121;-64
2023/09/28 05:51:22;;;;;;;11.82;6.57;;;;;;;;;;5091434;28;20059;-62
2023/09/28 05:53:50;;;;;;;9.70;6.97;;;;;;;;;;5092659;28;20070;-62
2023/09/28 05:56:16;;;;;;;14.15;6.70;;;;;;;;;;5094361;28;20032;-63
2023/09/28 05:58:42;;;;;;;10.80;6.40;;;;;;;;;;5094331;28;20036;-65
2023/09/28 06:01:12;;;;;;;7.90;6.18;;;;;;;;;;5094296;28;20116;-64
2023/09/28 06:03:38;;;;;;;9.82;7.13;;;;;;;;;;5093046;28;20059;-62
2023/09/28 06:06:17;;;;;;;10.63;6.20;;;;;;;;;;5094551;28;20055;-63
2023/09/28 06:08:43;;;;;;;7.43;5.97;;;;;;;;;;5092936;28;20046;-62
2023/09/28 06:11:12;;;;;;;9.05;5.95;;;;;;;;;;5093750;28;20511;-62
2023/09/28 06:13:41;;;;;;;10.32;6.57;;;;;;;;;;5093562;28;20064;-62
2023/09/28 06:16:11;;;;;;;8.68;6.13;;;;;;;;;;5090465;28;20040;-63
2023/09/28 06:18:37;;;;;;;9.60;6.55;;;;;;;;;;5083731;28;20042;-62
2023/09/28 06:21:03;;;;;;;13.07;6.60;;;;;;;;;;5080778;28;20120;-63
2023/09/28 06:23:28;;;;;;;9.45;6.32;;;;;;;;;;5076594;28;20041;-65
2023/09/28 06:25:54;;;;;;;10.02;6.40;;;;;;;;;;5082008;28;20039;-63
2023/09/28 06:28:23;;;;;;;10.23;6.03;;;;;;;;;;5084162;28;20054;-61
2023/09/28 06:30:49;;;;;;;8.63;5.90;;;;;;;;;;5078929;28;20619;-61
2023/09/28 06:33:16;;;;;;;7.38;5.85;;;;;;;;;;5071924;28;20125;-63
2023/09/28 06:35:42;;;;;;;7.40;6.03;;;;;;;;;;5055523;28;20135;-64
2023/09/28 06:38:07;;;;;;;9.98;6.10;;;;;;;;;;5070383;28;20190;-63
2023/09/28 06:40:33;;;;;;;10.88;6.18;;;;;;;;;;5073228;28;20051;-64
2023/09/28 06:42:59;;;;;;;10.35;5.60;;;;;;;;;;5072739;28;20052;-63
2023/09/28 06:45:25;;;;;;;8.48;5.68;;;;;;;;;;5091443;28;20040;-64
2023/09/28 06:47:53;;;;;;;9.40;5.50;;;;;;;;;;5093039;28;20040;-61
2023/09/28 06:50:19;;;;;;;8.15;6.00;;;;;;;;;;5074245;28;20494;-62
2023/09/28 06:52:45;;;;;;;10.75;5.82;;;;;;;;;;5073072;28;20111;-63
2023/09/28 06:55:11;;;;;;;8.27;5.55;;;;;;;;;;5071269;28;20037;-65
2023/09/28 06:57:37;;;;;;;9.10;5.45;;;;;;;;;;5073076;28;20036;-61
2023/09/28 07:00:06;;;;;;;11.10;5.47;;;;;;;;;;5070994;28;20039;-63
2023/09/28 07:02:32;;;;;;;10.48;5.38;;;;;;;;;;5071061;28;20051;-62
2023/09/28 07:04:57;;;;;;;10.40;5.57;;;;;;;;;;5072248;28;20494;-65
2023/09/28 07:07:24;;;;;;;10.27;4.95;;;;;;;;;;5072252;28;20040;-64
2023/09/28 07:09:51;;;;;;;12.07;4.85;;;;;;;;;;5070699;28;20097;-64
2023/09/28 07:12:16;;;;;;;9.27;4.90;;;;;;;;;;5072562;28;20467;-63
2023/09/28 07:14:42;;;;;;;10.55;5.30;;;;;;;;;;5071061;28;20032;-65
2023/09/28 07:17:08;;;;;;;8.88;5.60;;;;;;;;;;5071074;28;20040;-63
2023/09/28 07:19:34;;;;;;;8.65;5.78;;;;;;;;;;5072338;28;20036;-64
2023/09/28 07:22:01;;;;;;;8.27;5.55;;;;;;;;;;5071248;28;20028;-65
2023/09/28 07:24:29;;;;;;;7.93;5.70;;;;;;;;;;5072135;28;20036;-64
2023/09/28 07:26:56;;;;;;;8.70;5.50;;;;;;;;;;5070904;28;20032;-65
2023/09/28 07:29:21;;;;;;;7.13;5.35;;;;;;;;;;5071994;28;20045;-62
2023/09/28 07:31:47;;;;;;;7.85;5.53;;;;;;;;;;5072394;28;20520;-64
2023/09/28 07:34:13;;;;;;;23.23;13.43;;;;;;;;;;5070966;28;20033;-66
2023/09/28 07:36:39;;;;;;;9.95;5.40;;;;;;;;;;5070980;28;20033;-65
2023/09/28 07:39:05;;;;;;;8.65;5.55;;;;;;;;;;5071603;28;20043;-65
2023/09/28 07:41:30;;;;;;;9.80;4.97;;;;;;;;;;5071478;28;20036;-63
2023/09/28 07:43:56;;;;;;;7.90;4.65;;;;;;;;;;5078036;28;20064;-65
2023/09/28 07:46:21;;;;;;;5.82;4.47;;;;;;;;;;5092201;28;20416;-62
2023/09/28 07:48:47;;;;;;;9.57;4.63;;;;;;;;;;5085720;28;20051;-63
2023/09/28 07:51:13;;;;;;;7.68;4.70;;;;;;;;;;5071723;28;20064;-64
2023/09/28 07:53:39;;;;;;;7.20;4.30;;;;;;;;;;5071453;28;20067;-63
2023/09/28 07:56:04;;;;;;;9.57;4.18;;;;;;;;;;5071643;28;20505;-63
2023/09/28 07:58:30;;;;;;;8.65;4.97;;;;;;;;;;5071090;28;20066;-65
2023/09/28 08:00:56;;;;;;;7.90;4.25;;;;;;;;;;5070707;28;20505;-64
2023/09/28 08:03:21;;;;;;;7.43;4.47;;;;;;;;;;5070068;28;20417;-64
2023/09/28 08:05:47;;;;;;;9.10;4.47;;;;;;;;;;5070377;28;20037;-64
2023/09/28 08:08:13;;;;;;;7.43;4.75;;;;;;;;;;5070752;28;20520;-64
2023/09/28 08:10:38;;;;;;;6.50;4.32;;;;;;;;;;5071153;28;20037;-63
2023/09/28 08:13:06;;;;;;;8.63;4.90;;;;;;;;;;5069588;28;20406;-64
2023/09/28 08:15:32;;;;;;;7.78;4.43;;;;;;;;;;5071472;28;20049;-64
2023/09/28 08:17:58;;;;;;;7.60;5.18;;;;;;;;;;5069806;28;20040;-62
2023/09/28 08:20:26;;;;;;;6.97;4.63;;;;;;;;;;5072060;28;20067;-64
2023/09/28 08:22:52;;;;;;;6.85;4.30;;;;;;;;;;5076895;28;20129;-62
2023/09/28 08:25:18;;;;;;;6.65;4.38;;;;;;;;;;5069581;28;20486;-65
2023/09/28 08:27:44;;;;;;;9.35;4.25;;;;;;;;;;5071157;28;20102;-62
2023/09/28 08:30:10;;;;;;;8.20;4.50;;;;;;;;;;5070297;28;20040;-63
2023/09/28 08:32:36;;;;;;;6.82;4.18;;;;;;;;;;5071673;28;20028;-62
2023/09/28 08:35:01;;;;;;;7.45;4.05;;;;;;;;;;5070720;28;20062;-62
2023/09/28 08:37:29;;;;;;;8.48;4.38;;;;;;;;;;5071416;28;20036;-62
2023/09/28 08:39:54;;;;;;;5.65;3.75;;;;;;;;;;5070755;28;20051;-63
2023/09/28 08:42:25;;;;;;;9.55;4.38;;;;;;;;;;5070813;28;20052;-62
2023/09/28 08:45:01;;;;;;;6.00;4.32;;;;;;;;;;5084796;28;20051;-62
2023/09/28 08:47:31;;;;;;;6.18;3.80;;;;;;;;;;5091515;28;20036;-61
2023/09/28 08:49:58;;;;;;;5.53;4.13;;;;;;;;;;5075535;28;20071;-63
2023/09/28 08:52:24;;;;;;;10.38;4.43;;;;;;;;;;5070949;28;20135;-62
2023/09/28 08:54:52;;;;;;;9.50;4.55;;;;;;;;;;5069638;28;20040;-62
2023/09/28 08:57:18;;;;;;;8.10;4.50;;;;;;;;;;5070765;28;20043;-61
2023/09/28 08:59:49;;;;;;;9.93;4.50;;;;;;;;;;5070901;28;20040;-63
2023/09/28 09:02:15;;;;;;;7.03;4.45;;;;;;;;;;5070980;28;20036;-62
2023/09/28 09:04:42;;;;;;;8.73;3.95;;;;;;;;;;5070959;28;20043;-62
2023/09/28 09:07:08;;;;;;;9.07;4.60;;;;;;;;;;5078687;28;20043;-61
2023/09/28 09:09:40;;;;;;;11.55;5.15;;;;;;;;;;5060436;28;20032;-64
2023/09/28 09:12:09;;;;;;;6.55;4.45;;;;;;;;;;5072778;28;20047;-63
2023/09/28 09:14:35;;;;;;;10.52;4.53;;;;;;;;;;5085249;28;20044;-61
2023/09/28 09:17:01;;;;;;;7.10;3.92;;;;;;;;;;5092735;28;20059;-62
2023/09/28 09:19:32;;;;;;;9.07;4.05;;;;;;;;;;5081075;28;20040;-64
2023/09/28 09:21:58;;;;;;;7.65;3.92;;;;;;;;;;5074496;28;20032;-63
2023/09/28 09:24:24;;;;;;;9.57;4.13;;;;;;;;;;5074429;28;20521;-64
2023/09/28 09:26:53;;;;;;;6.20;3.70;;;;;;;;;;5074743;28;20067;-62
2023/09/28 09:29:19;;;;;;;6.45;3.70;;;;;;;;;;5074233;28;20091;-63
2023/09/28 09:31:46;;;;;;;5.93;3.78;;;;;;;;;;5074595;28;20044;-62
2023/09/28 09:34:12;;;;;;;6.03;3.63;;;;;;;;;;5074095;28;20036;-60
2023/09/28 09:36:38;;;;;;;5.10;3.72;;;;;;;;;;5073388;28;20040;-63
2023/09/28 09:39:04;;;;;;;6.22;3.45;;;;;;;;;;5074055;28;20044;-62
2023/09/28 09:41:30;;;;;;;9.50;3.90;;;;;;;;;;5073659;28;20033;-62
2023/09/28 09:43:57;;;;;;;4.07;3.65;;;;;;;;;;5086544;28;20067;-63
2023/09/28 09:46:24;;;;;;;9.38;3.90;;;;;;;;;;5114741;28;20043;-64
2023/09/28 09:48:50;;;;;;;8.43;3.65;;;;;;;;;;5100758;28;20468;-63
2023/09/28 09:51:17;;;;;;;7.40;4.43;;;;;;;;;;5073843;28;20037;-61
2023/09/28 09:53:43;;;;;;;7.45;4.13;;;;;;;;;;5072727;28;20032;-62
2023/09/28 09:56:10;;;;;;;6.78;3.67;;;;;;;;;;5074342;28;20063;-62
2023/09/28 09:58:42;;;;;;;5.93;4.15;;;;;;;;;;5073945;28;20511;-63
2023/09/28 10:01:14;;;;;;;5.40;3.80;;;;;;;;;;5072575;28;20040;-64
2023/09/28 10:03:47;;;;;;;6.20;4.00;;;;;;;;;;5073896;28;20032;-63
2023/09/28 10:06:15;;;;;;;8.10;4.00;;;;;;;;;;5073804;28;20410;-63
2023/09/28 10:08:41;;;;;;;6.70;3.80;;;;;;;;;;5073530;28;20558;-62
2023/09/28 10:11:08;;;;;;;8.20;3.70;;;;;;;;;;5073386;28;20032;-64
2023/09/28 10:13:35;;;;;;;4.90;3.80;;;;;;;;;;5073510;28;20040;-62
2023/09/28 10:16:02;;;;;;;8.98;4.00;;;;;;;;;;5072489;28;20038;-63
2023/09/28 10:18:30;;;;;;;9.80;4.38;;;;;;;;;;5073562;28;20037;-63
2023/09/28 10:20:57;;;;;;;5.00;3.45;;;;;;;;;;5073712;28;20044;-63
2023/09/28 10:23:25;;;;;;;5.57;3.70;;;;;;;;;;5075031;28;20559;-63
2023/09/28 10:25:57;;;;;;;6.05;3.80;;;;;;;;;;5092580;28;20665;-64
2023/09/28 10:28:25;;;;;;;6.65;3.72;;;;;;;;;;5092047;28;20093;-66
2023/09/28 10:31:10;;;;;;;6.05;3.70;;;;;;;;;;5093515;28;20568;-63
2023/09/28 10:33:55;;;;;;;7.43;3.80;;;;;;;;;;5092382;28;20024;-62
2023/09/28 10:36:21;;;;;;;6.13;3.85;;;;;;;;;;5093735;28;20047;-62
2023/09/28 10:38:46;;;;;;;7.45;3.67;;;;;;;;;;5092766;28;20445;-62
2023/09/28 10:41:12;;;;;;;7.10;3.80;;;;;;;;;;5093253;28;20036;-64
2023/09/28 10:43:40;;;;;;;5.90;3.40;;;;;;;;;;5095723;28;20099;-63
2023/09/28 10:46:06;;;;;;;6.82;3.58;;;;;;;;;;5113924;28;20061;-62
2023/09/28 10:48:52;;;;;;;6.30;3.95;;;;;;;;;;5106590;28;20090;-64
2023/09/28 10:51:18;;;;;;;5.38;4.00;;;;;;;;;;5072606;28;20060;-64
2023/09/28 10:53:44;;;;;;;6.32;4.00;;;;;;;;;;5073041;28;20046;-63
2023/09/28 10:56:12;;;;;;;7.18;3.80;;;;;;;;;;5073077;28;20509;-63
2023/09/28 10:58:41;;;;;;;4.70;3.80;;;;;;;;;;5071561;28;20032;-64
2023/09/28 11:01:07;;;;;;;5.13;3.63;;;;;;;;;;5072097;28;20033;-63
2023/09/28 11:03:33;;;;;;;7.95;3.72;;;;;;;;;;5072825;28;20055;-61
2023/09/28 11:06:00;;;;;;;9.18;4.00;;;;;;;;;;5072953;28;20064;-63
2023/09/28 11:08:26;;;;;;;9.20;3.95;;;;;;;;;;5072685;28;20055;-63
2023/09/28 11:10:55;;;;;;;7.85;3.90;;;;;;;;;;5072716;28;20040;-69
2023/09/28 11:13:21;;;;;;;8.93;3.47;;;;;;;;;;5075612;28;20044;-64
2023/09/28 11:15:49;;;;;;;8.68;3.65;;;;;;;;;;5072156;28;20124;-64
2023/09/28 11:18:15;;;;;;;6.85;4.10;;;;;;;;;;5071294;28;20036;-63
2023/09/28 11:20:42;;;;;;;7.15;3.83;;;;;;;;;;5070948;28;20044;-64
2023/09/28 11:23:11;;;;;;;4.90;3.85;;;;;;;;;;5072424;28;20415;-65
2023/09/28 11:25:38;;;;;;;7.35;3.92;;;;;;;;;;5072121;28;20036;-63
2023/09/28 11:28:07;;;;;;;9.00;4.07;;;;;;;;;;5071060;28;20055;-63
2023/09/28 11:30:33;;;;;;;5.73;4.37;;;;;;;;;;5072174;28;20378;-63
2023/09/28 11:33:02;;;;;;;8.85;4.28;;;;;;;;;;5072108;28;20029;-63
2023/09/28 11:35:31;;;;;;;7.68;3.97;;;;;;;;;;5071908;28;20137;-65
2023/09/28 11:38:09;;;;;;;6.15;3.80;;;;;;;;;;5071106;28;20109;-65
2023/09/28 11:40:37;;;;;;;8.60;5.28;;;;;;;;;;5069110;28;20386;-63
2023/09/28 11:43:03;;;;;;;11.25;4.57;;;;;;;;;;5069562;28;20056;-61
2023/09/28 11:45:30;;;;;;;9.77;5.32;;;;;;;;;;5097286;28;20047;-65
2023/09/28 11:47:56;;;;;;;6.97;4.47;;;;;;;;;;5069560;28;20048;-64
2023/09/28 11:50:23;;;;;;;7.93;4.13;;;;;;;;;;5071211;28;20041;-62
2023/09/28 11:52:50;;;;;;;15.88;11.32;;;;;;;;;;5071694;28;20051;-64
2023/09/28 11:55:16;;;;;;;9.25;4.20;;;;;;;;;;5071423;28;20028;-63
2023/09/28 11:57:45;;;;;;;5.80;3.53;;;;;;;;;;5070777;28;20046;-64
2023/09/28 12:00:17;;;;;;;8.60;3.72;;;;;;;;;;5069405;28;20032;-62
2023/09/28 12:02:43;;;;;;;10.88;5.43;;;;;;;;;;5069966;28;20028;-62
2023/09/28 12:05:10;;;;;;;6.53;4.18;;;;;;;;;;5071058;28;20123;-62
2023/09/28 12:07:36;;;;;;;8.55;4.00;;;;;;;;;;5071708;28;20055;-64
2023/09/28 12:10:01;;;;;;;7.68;4.18;;;;;;;;;;5071294;28;20048;-63
2023/09/28 12:12:29;;;;;;;6.38;3.65;;;;;;;;;;5071763;28;20093;-63
2023/09/28 12:14:54;;;;;;;9.02;4.45;;;;;;;;;;5071296;28;20174;-66
2023/09/28 12:17:20;;;;;;;9.85;4.10;;;;;;;;;;5071393;28;20086;-64
2023/09/28 12:19:46;;;;;;;5.28;3.58;;;;;;;;;;5071396;28;20032;-66
2023/09/28 12:22:18;;;;;;;12.73;4.63;;;;;;;;;;5071451;28;20047;-65
2023/09/28 12:25:01;;;;;;;5.18;3.75;;;;;;;;;;5069689;28;20036;-65
2023/09/28 12:27:38;;;;;;;9.38;4.10;;;;;;;;;;5069891;28;20417;-67
2023/09/28 12:30:07;;;;;;;7.55;3.55;;;;;;;;;;5070978;28;20457;-65
2023/09/28 12:32:33;;;;;;;7.78;3.83;;;;;;;;;;5071554;28;20035;-65
2023/09/28 12:35:01;;;;;;;5.10;3.72;;;;;;;;;;5070825;28;20530;-67
2023/09/28 12:37:27;;;;;;;6.28;3.70;;;;;;;;;;5071329;28;20071;-65
2023/09/28 12:39:54;;;;;;;8.65;5.10;;;;;;;;;;5069477;28;20033;-64
2023/09/28 12:42:21;;;;;;;8.00;4.50;;;;;;;;;;5070837;28;20536;-62
2023/09/28 12:44:47;;;;;;;11.23;5.40;;;;;;;;;;5095678;28;20040;-65
2023/09/28 12:47:13;;;;;;;8.30;5.50;;;;;;;;;;5070565;28;20048;-62
2023/09/28 12:49:40;;;;;;;9.93;4.25;;;;;;;;;;5069584;28;20038;-63
2023/09/28 12:52:06;;;;;;;5.72;4.15;;;;;;;;;;5068353;28;20036;-62
2023/09/28 12:54:31;;;;;;;7.30;4.40;;;;;;;;;;5069831;28;20036;-68
2023/09/28 12:56:58;;;;;;;8.18;5.55;;;;;;;;;;5068419;28;20035;-64
2023/09/28 12:59:24;;;;;;;9.35;4.80;;;;;;;;;;5067409;28;20123;-62
2023/09/28 13:01:49;;;;;;;5.13;4.03;;;;;;;;;;5068779;28;20505;-64
2023/09/28 13:04:15;;;;;;;6.82;3.78;;;;;;;;;;5069842;28;20054;-64
2023/09/28 13:06:41;;;;;;;10.20;5.25;;;;;;;;;;5071178;28;20335;-65
2023/09/28 13:09:07;;;;;;;6.55;4.30;;;;;;;;;;5069224;28;20441;-63
2023/09/28 13:11:34;;;;;;;7.00;4.10;;;;;;;;;;5070530;28;20064;-63
2023/09/28 13:14:00;;;;;;;8.13;5.20;;;;;;;;;;5070911;28;20036;-64
2023/09/28 13:16:26;;;;;;;4.43;3.67;;;;;;;;;;5070883;28;20474;-63
2023/09/28 13:18:51;;;;;;;7.10;3.78;;;;;;;;;;5070864;28;20066;-63
2023/09/28 13:21:18;;;;;;;7.40;3.60;;;;;;;;;;5070469;28;20470;-62
2023/09/28 13:23:45;;;;;;;5.82;3.58;;;;;;;;;;5070383;28;20060;-63
2023/09/28 13:26:11;;;;;;;5.00;4.05;;;;;;;;;;5070455;28;20036;-61
2023/09/28 13:28:37;;;;;;;6.00;4.40;;;;;;;;;;5069264;28;20053;-63
2023/09/28 13:31:07;;;;;;;9.00;4.22;;;;;;;;;;5070777;28;20197;-62
2023/09/28 13:33:37;;;;;;;5.93;3.60;;;;;;;;;;5069093;28;20040;-62
2023/09/28 13:36:05;;;;;;;5.57;4.05;;;;;;;;;;5070648;28;20075;-62
2023/09/28 13:38:31;;;;;;;8.55;3.83;;;;;;;;;;5069144;28;20079;-64
2023/09/28 13:40:58;;;;;;;5.72;3.50;;;;;;;;;;5070558;28;20425;-64
2023/09/28 13:43:24;;;;;;;4.97;3.45;;;;;;;;;;5073143;28;20070;-62
2023/09/28 13:45:49;;;;;;;8.15;3.58;;;;;;;;;;5110401;28;20538;-63
2023/09/28 13:48:16;;;;;;;5.68;3.92;;;;;;;;;;5084758;28;20047;-64
2023/09/28 13:50:44;;;;;;;6.43;3.45;;;;;;;;;;5067175;28;20091;-63
2023/09/28 13:53:10;;;;;;;6.93;3.88;;;;;;;;;;5069285;28;20036;-62
2023/09/28 13:55:36;;;;;;;8.77;3.70;;;;;;;;;;5052377;28;20040;-63
2023/09/28 13:58:02;;;;;;;7.13;4.00;;;;;;;;;;5071931;28;20048;-63
2023/09/28 14:02:57;;;;;;;6.85;3.90;;;;;;;;;;5073848;28;20163;-64
2023/09/28 14:05:22;;;;;;;8.15;3.90;;;;;;;;;;5073549;28;20554;-64
2023/09/28 14:07:49;;;;;;;9.05;4.05;;;;;;;;;;5073252;28;20044;-63
2023/09/28 14:10:15;;;;;;;8.18;4.30;;;;;;;;;;5073428;28;20517;-63
2023/09/28 14:12:41;;;;;;;6.15;3.40;;;;;;;;;;5073398;28;20040;-64
2023/09/28 14:15:07;;;;;;;10.77;4.03;;;;;;;;;;5073365;28;20036;-64
2023/09/28 14:17:34;;;;;;;8.38;4.03;;;;;;;;;;5073860;28;20040;-64
2023/09/28 14:20:01;;;;;;;6.53;4.00;;;;;;;;;;5073802;28;20554;-63
2023/09/28 14:22:27;;;;;;;11.90;3.88;;;;;;;;;;5073700;28;20033;-62
2023/09/28 14:24:53;;;;;;;6.10;3.47;;;;;;;;;;5082708;28;20516;-62
2023/09/28 14:27:19;;;;;;;6.05;3.65;;;;;;;;;;5082612;28;20123;-62
2023/09/28 14:29:45;;;;;;;9.05;4.07;;;;;;;;;;5082564;28;20190;-63
2023/09/28 14:32:10;;;;;;;8.13;3.97;;;;;;;;;;5083390;28;20036;-62
2023/09/28 14:34:36;;;;;;;11.32;4.25;;;;;;;;;;5083285;28;20405;-61
2023/09/28 14:37:01;;;;;;;8.32;4.18;;;;;;;;;;5081683;28;20103;-62